<?xml version="1.0" encoding="UTF-8" standalone="no" ?>
<gpx xmlns="http://www.topografix.com/GPX/1/1" xmlns:xsi="http://www.w3.org/2001/XMLSchema-instance" xsi:schemaLocation="http://www.topografix.com/GPX/1/1 http://www.topografix.com/GPX/1/1/gpx.xsd" version="1.1" creator="VisuGPX - https://www.visugpx.com">
  <metadata>
    <name>TestGeoLocDesneries</name>
    <desc><![CDATA[<p>Heure de départ: 07/06/2023 13:33<br/>Heure d'arrivée: 07/06/2023 13:57<br/>Distance: 3,1 km (00:23)<br/>Temps déplacement: 00:17<br/>Vitesse moyenne: 7,88 km/h<br/>Vitesse moyenne mouv.: 10,72 km/h<br/>Vitesse Max.: 17,66 km/h<br/>Altitude minimale: 16 m<br/>Altitude maximale: 37 m<br/>Vitesse de montée: 154,2 m/h<br/>Vitesse de descente: -194,3 m/h<br/>Gain d'altitude: 34 m<br/>Perte d'altitude: -31 m<br/>Temps de montée: 00:13<br/>Temps de descente: 00:09<br/></p><hr align="center" width="480" style="height: 2px; width: 517px"/>]]></desc>
  </metadata>
  <wpt lat="47.2689" lon="-1.54467">
    <ele>27.8</ele>
    <name><![CDATA[0001347]]></name>
    <type><![CDATA[Point de départ]]></type>
  </wpt>
  <wpt lat="47.26904" lon="-1.54484">
    <ele>28.4</ele>
    <name><![CDATA[0001348]]></name>
    <desc><![CDATA[<p><br /><h3>Nom: Segment: 1</h3><br />Heure de départ: 07/06/2023 13:33<br/>Heure d'arrivée: 07/06/2023 13:57<br/>Distance: 3,1km (00:23)<br/>Temps déplacement: 00:17<br/>Vitesse moyenne: 7,88 km/h<br/>Vitesse moyenne mouv.: 10,47 km/h<br/>Vitesse Max.: 17,66 km/h<br/>Altitude minimale: 16 m<br/>Altitude maximale: 37 m<br/>Vitesse de montée: 180,5 m/h<br/>Vitesse de descente: -228,8 m/h<br/>Gain d'altitude: 37 m<br/>Perte d'altitude: -36 m<br/>Temps de montée: 00:12<br/>Temps de descente: 00:09<br/></p>]]></desc>
    <type><![CDATA[Point d'arrivée]]></type>
  </wpt>
  <trk>
    <name><![CDATA[2023-07-06 13:33]]></name>
    <desc><![CDATA[<p>Heure de départ: 07/06/2023 13:33<br/>Heure d'arrivée: 07/06/2023 13:57<br/>Distance: 3,1 km (00:23)<br/>Temps déplacement: 00:17<br/>Vitesse moyenne: 7,88 km/h<br/>Vitesse moyenne mouv.: 10,72 km/h<br/>Vitesse Max.: 17,66 km/h<br/>Altitude minimale: 16 m<br/>Altitude maximale: 37 m<br/>Vitesse de montée: 154,2 m/h<br/>Vitesse de descente: -194,3 m/h<br/>Gain d'altitude: 34 m<br/>Perte d'altitude: -31 m<br/>Temps de montée: 00:13<br/>Temps de descente: 00:09<br/></p><hr align="center" width="480" style="height: 2px; width: 517px"/>]]></desc>
    <extensions>
      <line xmlns="http://www.topografix.com/GPX/gpx_style/0/2">
        <color>0000FF</color>
        <width>4</width>
      </line>
    </extensions>
    <trkseg>
      <trkpt lat="47.2689" lon="-1.54467">
        <ele>28</ele>
        <time>2023-07-06T11:33:44Z</time>
      </trkpt>
      <trkpt lat="47.26907" lon="-1.54483">
        <ele>28</ele>
        <time>2023-07-06T11:37:17Z</time>
      </trkpt>
      <trkpt lat="47.26902" lon="-1.54512">
        <ele>30.8</ele>
        <time>2023-07-06T11:37:25Z</time>
      </trkpt>
      <trkpt lat="47.26892" lon="-1.5454">
        <ele>31.89</ele>
        <time>2023-07-06T11:37:33Z</time>
      </trkpt>
      <trkpt lat="47.26873" lon="-1.5456">
        <ele>31.99</ele>
        <time>2023-07-06T11:37:41Z</time>
      </trkpt>
      <trkpt lat="47.26852" lon="-1.54567">
        <ele>32</ele>
        <time>2023-07-06T11:37:49Z</time>
      </trkpt>
      <trkpt lat="47.26833" lon="-1.54564">
        <ele>29.9</ele>
        <time>2023-07-06T11:37:57Z</time>
      </trkpt>
      <trkpt lat="47.26814" lon="-1.54549">
        <ele>29</ele>
        <time>2023-07-06T11:38:37Z</time>
      </trkpt>
      <trkpt lat="47.26797" lon="-1.54528">
        <ele>29</ele>
        <time>2023-07-06T11:38:45Z</time>
      </trkpt>
      <trkpt lat="47.26775" lon="-1.54508">
        <ele>29</ele>
        <time>2023-07-06T11:38:53Z</time>
      </trkpt>
      <trkpt lat="47.2675" lon="-1.54498">
        <ele>28.3</ele>
        <time>2023-07-06T11:39:01Z</time>
      </trkpt>
      <trkpt lat="47.26721" lon="-1.54469">
        <ele>28.03</ele>
        <time>2023-07-06T11:39:09Z</time>
      </trkpt>
      <trkpt lat="47.26687" lon="-1.54461">
        <ele>28</ele>
        <time>2023-07-06T11:39:17Z</time>
      </trkpt>
      <trkpt lat="47.2665" lon="-1.54461">
        <ele>25.9</ele>
        <time>2023-07-06T11:39:25Z</time>
      </trkpt>
      <trkpt lat="47.26632" lon="-1.54467">
        <ele>25.27</ele>
        <time>2023-07-06T11:39:29Z</time>
      </trkpt>
      <trkpt lat="47.26614" lon="-1.54471">
        <ele>25.08</ele>
        <time>2023-07-06T11:39:33Z</time>
      </trkpt>
      <trkpt lat="47.26588" lon="-1.54459">
        <ele>25.01</ele>
        <time>2023-07-06T11:39:41Z</time>
      </trkpt>
      <trkpt lat="47.26581" lon="-1.54429">
        <ele>23.18</ele>
        <time>2023-07-06T11:39:49Z</time>
      </trkpt>
      <trkpt lat="47.26576" lon="-1.5439">
        <ele>22.03</ele>
        <time>2023-07-06T11:40:01Z</time>
      </trkpt>
      <trkpt lat="47.26601" lon="-1.54384">
        <ele>22.91</ele>
        <time>2023-07-06T11:40:09Z</time>
      </trkpt>
      <trkpt lat="47.26627" lon="-1.54378">
        <ele>22.99</ele>
        <time>2023-07-06T11:40:17Z</time>
      </trkpt>
      <trkpt lat="47.26634" lon="-1.54351">
        <ele>23</ele>
        <time>2023-07-06T11:40:21Z</time>
      </trkpt>
      <trkpt lat="47.2663" lon="-1.54324">
        <ele>21.6</ele>
        <time>2023-07-06T11:40:25Z</time>
      </trkpt>
      <trkpt lat="47.26629" lon="-1.54296">
        <ele>21</ele>
        <time>2023-07-06T11:40:49Z</time>
      </trkpt>
      <trkpt lat="47.26636" lon="-1.5426">
        <ele>21</ele>
        <time>2023-07-06T11:41:01Z</time>
      </trkpt>
      <trkpt lat="47.26647" lon="-1.54229">
        <ele>21</ele>
        <time>2023-07-06T11:41:09Z</time>
      </trkpt>
      <trkpt lat="47.26662" lon="-1.54202">
        <ele>21</ele>
        <time>2023-07-06T11:41:17Z</time>
      </trkpt>
      <trkpt lat="47.26679" lon="-1.54187">
        <ele>22.82</ele>
        <time>2023-07-06T11:41:25Z</time>
      </trkpt>
      <trkpt lat="47.26698" lon="-1.54169">
        <ele>22.98</ele>
        <time>2023-07-06T11:41:33Z</time>
      </trkpt>
      <trkpt lat="47.26718" lon="-1.54152">
        <ele>26.64</ele>
        <time>2023-07-06T11:41:41Z</time>
      </trkpt>
      <trkpt lat="47.26736" lon="-1.54131">
        <ele>26.97</ele>
        <time>2023-07-06T11:41:49Z</time>
      </trkpt>
      <trkpt lat="47.26756" lon="-1.5411">
        <ele>27.7</ele>
        <time>2023-07-06T11:41:57Z</time>
      </trkpt>
      <trkpt lat="47.26784" lon="-1.54085">
        <ele>27.97</ele>
        <time>2023-07-06T11:42:05Z</time>
      </trkpt>
      <trkpt lat="47.26801" lon="-1.54069">
        <ele>25.19</ele>
        <time>2023-07-06T11:42:09Z</time>
      </trkpt>
      <trkpt lat="47.26827" lon="-1.54044">
        <ele>24.11</ele>
        <time>2023-07-06T11:42:17Z</time>
      </trkpt>
      <trkpt lat="47.26844" lon="-1.54028">
        <ele>25.83</ele>
        <time>2023-07-06T11:42:25Z</time>
      </trkpt>
      <trkpt lat="47.26859" lon="-1.5401">
        <ele>26</ele>
        <time>2023-07-06T11:42:45Z</time>
      </trkpt>
      <trkpt lat="47.26886" lon="-1.53998">
        <ele>25.3</ele>
        <time>2023-07-06T11:42:57Z</time>
      </trkpt>
      <trkpt lat="47.26911" lon="-1.53989">
        <ele>25.03</ele>
        <time>2023-07-06T11:43:05Z</time>
      </trkpt>
      <trkpt lat="47.26935" lon="-1.53982">
        <ele>23.18</ele>
        <time>2023-07-06T11:43:13Z</time>
      </trkpt>
      <trkpt lat="47.26964" lon="-1.53972">
        <ele>23.02</ele>
        <time>2023-07-06T11:43:21Z</time>
      </trkpt>
      <trkpt lat="47.26985" lon="-1.53963">
        <ele>23</ele>
        <time>2023-07-06T11:43:29Z</time>
      </trkpt>
      <trkpt lat="47.27005" lon="-1.53939">
        <ele>20.9</ele>
        <time>2023-07-06T11:43:41Z</time>
      </trkpt>
      <trkpt lat="47.27018" lon="-1.53915">
        <ele>18.6</ele>
        <time>2023-07-06T11:44:05Z</time>
      </trkpt>
      <trkpt lat="47.27035" lon="-1.53895">
        <ele>18</ele>
        <time>2023-07-06T11:44:21Z</time>
      </trkpt>
      <trkpt lat="47.27054" lon="-1.53866">
        <ele>18</ele>
        <time>2023-07-06T11:44:33Z</time>
      </trkpt>
      <trkpt lat="47.2707" lon="-1.53845">
        <ele>18</ele>
        <time>2023-07-06T11:44:45Z</time>
      </trkpt>
      <trkpt lat="47.27084" lon="-1.53829">
        <ele>16.6</ele>
        <time>2023-07-06T11:44:53Z</time>
      </trkpt>
      <trkpt lat="47.27106" lon="-1.53803">
        <ele>16.02</ele>
        <time>2023-07-06T11:45:05Z</time>
      </trkpt>
      <trkpt lat="47.27121" lon="-1.53787">
        <ele>16</ele>
        <time>2023-07-06T11:45:13Z</time>
      </trkpt>
      <trkpt lat="47.27136" lon="-1.53764">
        <ele>16</ele>
        <time>2023-07-06T11:45:21Z</time>
      </trkpt>
      <trkpt lat="47.27158" lon="-1.53741">
        <ele>17.4</ele>
        <time>2023-07-06T11:45:29Z</time>
      </trkpt>
      <trkpt lat="47.27176" lon="-1.53722">
        <ele>20.68</ele>
        <time>2023-07-06T11:45:37Z</time>
      </trkpt>
      <trkpt lat="47.27192" lon="-1.53707">
        <ele>20.97</ele>
        <time>2023-07-06T11:45:45Z</time>
      </trkpt>
      <trkpt lat="47.27214" lon="-1.53692">
        <ele>21</ele>
        <time>2023-07-06T11:45:57Z</time>
      </trkpt>
      <trkpt lat="47.27236" lon="-1.53696">
        <ele>21</ele>
        <time>2023-07-06T11:46:41Z</time>
      </trkpt>
      <trkpt lat="47.27247" lon="-1.5372">
        <ele>21</ele>
        <time>2023-07-06T11:46:49Z</time>
      </trkpt>
      <trkpt lat="47.2726" lon="-1.53746">
        <ele>25.55</ele>
        <time>2023-07-06T11:46:57Z</time>
      </trkpt>
      <trkpt lat="47.27275" lon="-1.53772">
        <ele>24.14</ele>
        <time>2023-07-06T11:47:05Z</time>
      </trkpt>
      <trkpt lat="47.27289" lon="-1.53796">
        <ele>24.01</ele>
        <time>2023-07-06T11:47:13Z</time>
      </trkpt>
      <trkpt lat="47.273" lon="-1.53822">
        <ele>24</ele>
        <time>2023-07-06T11:47:21Z</time>
      </trkpt>
      <trkpt lat="47.27311" lon="-1.53849">
        <ele>21.27</ele>
        <time>2023-07-06T11:47:29Z</time>
      </trkpt>
      <trkpt lat="47.27323" lon="-1.53879">
        <ele>21.02</ele>
        <time>2023-07-06T11:47:37Z</time>
      </trkpt>
      <trkpt lat="47.27334" lon="-1.53901">
        <ele>20.3</ele>
        <time>2023-07-06T11:47:45Z</time>
      </trkpt>
      <trkpt lat="47.27344" lon="-1.5393">
        <ele>21.43</ele>
        <time>2023-07-06T11:47:53Z</time>
      </trkpt>
      <trkpt lat="47.27356" lon="-1.53959">
        <ele>21.95</ele>
        <time>2023-07-06T11:48:01Z</time>
      </trkpt>
      <trkpt lat="47.27369" lon="-1.53986">
        <ele>22</ele>
        <time>2023-07-06T11:48:09Z</time>
      </trkpt>
      <trkpt lat="47.27381" lon="-1.54012">
        <ele>23.4</ele>
        <time>2023-07-06T11:48:17Z</time>
      </trkpt>
      <trkpt lat="47.27393" lon="-1.54038">
        <ele>23.98</ele>
        <time>2023-07-06T11:48:29Z</time>
      </trkpt>
      <trkpt lat="47.27405" lon="-1.5406">
        <ele>24</ele>
        <time>2023-07-06T11:48:41Z</time>
      </trkpt>
      <trkpt lat="47.27415" lon="-1.54086">
        <ele>24.7</ele>
        <time>2023-07-06T11:48:53Z</time>
      </trkpt>
      <trkpt lat="47.27424" lon="-1.54109">
        <ele>25</ele>
        <time>2023-07-06T11:49:37Z</time>
      </trkpt>
      <trkpt lat="47.27435" lon="-1.54142">
        <ele>25</ele>
        <time>2023-07-06T11:49:49Z</time>
      </trkpt>
      <trkpt lat="47.27444" lon="-1.54169">
        <ele>27.1</ele>
        <time>2023-07-06T11:50:33Z</time>
      </trkpt>
      <trkpt lat="47.27454" lon="-1.54202">
        <ele>27.92</ele>
        <time>2023-07-06T11:50:41Z</time>
      </trkpt>
      <trkpt lat="47.27462" lon="-1.54233">
        <ele>27.99</ele>
        <time>2023-07-06T11:50:49Z</time>
      </trkpt>
      <trkpt lat="47.27472" lon="-1.54264">
        <ele>28.7</ele>
        <time>2023-07-06T11:50:57Z</time>
      </trkpt>
      <trkpt lat="47.27481" lon="-1.54294">
        <ele>28.97</ele>
        <time>2023-07-06T11:51:05Z</time>
      </trkpt>
      <trkpt lat="47.27489" lon="-1.54323">
        <ele>29</ele>
        <time>2023-07-06T11:51:13Z</time>
      </trkpt>
      <trkpt lat="47.27497" lon="-1.54355">
        <ele>31.92</ele>
        <time>2023-07-06T11:51:25Z</time>
      </trkpt>
      <trkpt lat="47.27506" lon="-1.54381">
        <ele>29.26</ele>
        <time>2023-07-06T11:51:33Z</time>
      </trkpt>
      <trkpt lat="47.27513" lon="-1.54408">
        <ele>29.02</ele>
        <time>2023-07-06T11:51:41Z</time>
      </trkpt>
      <trkpt lat="47.27522" lon="-1.54435">
        <ele>31.73</ele>
        <time>2023-07-06T11:51:49Z</time>
      </trkpt>
      <trkpt lat="47.27532" lon="-1.54466">
        <ele>31.98</ele>
        <time>2023-07-06T11:51:57Z</time>
      </trkpt>
      <trkpt lat="47.27538" lon="-1.54502">
        <ele>33.4</ele>
        <time>2023-07-06T11:52:06Z</time>
      </trkpt>
      <trkpt lat="47.27533" lon="-1.54536">
        <ele>33.95</ele>
        <time>2023-07-06T11:52:14Z</time>
      </trkpt>
      <trkpt lat="47.27519" lon="-1.54567">
        <ele>34</ele>
        <time>2023-07-06T11:52:22Z</time>
      </trkpt>
      <trkpt lat="47.27495" lon="-1.54584">
        <ele>34</ele>
        <time>2023-07-06T11:52:30Z</time>
      </trkpt>
      <trkpt lat="47.2747" lon="-1.54607">
        <ele>34</ele>
        <time>2023-07-06T11:52:38Z</time>
      </trkpt>
      <trkpt lat="47.27453" lon="-1.54637">
        <ele>34</ele>
        <time>2023-07-06T11:52:46Z</time>
      </trkpt>
      <trkpt lat="47.27434" lon="-1.54657">
        <ele>34</ele>
        <time>2023-07-06T11:52:58Z</time>
      </trkpt>
      <trkpt lat="47.27419" lon="-1.54676">
        <ele>37.64</ele>
        <time>2023-07-06T11:53:38Z</time>
      </trkpt>
      <trkpt lat="47.274" lon="-1.54693">
        <ele>34.33</ele>
        <time>2023-07-06T11:53:46Z</time>
      </trkpt>
      <trkpt lat="47.27386" lon="-1.54717">
        <ele>34.01</ele>
        <time>2023-07-06T11:53:58Z</time>
      </trkpt>
      <trkpt lat="47.27364" lon="-1.54717">
        <ele>34</ele>
        <time>2023-07-06T11:54:10Z</time>
      </trkpt>
      <trkpt lat="47.27336" lon="-1.54707">
        <ele>34</ele>
        <time>2023-07-06T11:54:18Z</time>
      </trkpt>
      <trkpt lat="47.27303" lon="-1.54696">
        <ele>33.09</ele>
        <time>2023-07-06T11:54:26Z</time>
      </trkpt>
      <trkpt lat="47.27269" lon="-1.54684">
        <ele>33.01</ele>
        <time>2023-07-06T11:54:34Z</time>
      </trkpt>
      <trkpt lat="47.27238" lon="-1.54679">
        <ele>33</ele>
        <time>2023-07-06T11:54:42Z</time>
      </trkpt>
      <trkpt lat="47.27207" lon="-1.54668">
        <ele>33</ele>
        <time>2023-07-06T11:54:50Z</time>
      </trkpt>
      <trkpt lat="47.27175" lon="-1.54658">
        <ele>32.09</ele>
        <time>2023-07-06T11:54:58Z</time>
      </trkpt>
      <trkpt lat="47.27144" lon="-1.54648">
        <ele>31.1</ele>
        <time>2023-07-06T11:55:06Z</time>
      </trkpt>
      <trkpt lat="47.27115" lon="-1.5464">
        <ele>31.01</ele>
        <time>2023-07-06T11:55:14Z</time>
      </trkpt>
      <trkpt lat="47.27084" lon="-1.54629">
        <ele>31</ele>
        <time>2023-07-06T11:55:22Z</time>
      </trkpt>
      <trkpt lat="47.27054" lon="-1.54622">
        <ele>32.82</ele>
        <time>2023-07-06T11:55:30Z</time>
      </trkpt>
      <trkpt lat="47.27022" lon="-1.54618">
        <ele>32.98</ele>
        <time>2023-07-06T11:55:38Z</time>
      </trkpt>
      <trkpt lat="47.26992" lon="-1.54619">
        <ele>33</ele>
        <time>2023-07-06T11:55:46Z</time>
      </trkpt>
      <trkpt lat="47.26959" lon="-1.54621">
        <ele>33</ele>
        <time>2023-07-06T11:55:54Z</time>
      </trkpt>
      <trkpt lat="47.26926" lon="-1.54626">
        <ele>33</ele>
        <time>2023-07-06T11:56:02Z</time>
      </trkpt>
      <trkpt lat="47.26897" lon="-1.54625">
        <ele>33</ele>
        <time>2023-07-06T11:56:10Z</time>
      </trkpt>
      <trkpt lat="47.26877" lon="-1.54613">
        <ele>33</ele>
        <time>2023-07-06T11:56:18Z</time>
      </trkpt>
      <trkpt lat="47.26877" lon="-1.5458">
        <ele>32.3</ele>
        <time>2023-07-06T11:56:42Z</time>
      </trkpt>
      <trkpt lat="47.26882" lon="-1.54548">
        <ele>32.01</ele>
        <time>2023-07-06T11:56:54Z</time>
      </trkpt>
      <trkpt lat="47.26898" lon="-1.54521">
        <ele>32</ele>
        <time>2023-07-06T11:57:02Z</time>
      </trkpt>
      <trkpt lat="47.26904" lon="-1.54484">
        <ele>29.2</ele>
        <time>2023-07-06T11:57:10Z</time>
      </trkpt>
    </trkseg>
  </trk>
</gpx>